sensor_id;sensor_type;location;lat;lon;timestamp;P1;durP1;ratioP1;P2;durP2;ratioP2
9906;SDS011;4992;51.628;6.664;2024-02-16T00:02:17;9.43;;;1.75;;
9906;SDS011;4992;51.628;6.664;2024-02-16T00:04:43;3.00;;;1.30;;
9906;SDS011;4992;51.628;6.664;2024-02-16T00:07:09;3.50;;;1.52;;
9906;SDS011;4992;51.628;6.664;2024-02-16T00:09:34;3.42;;;1.55;;
9906;SDS011;4992;51.628;6.664;2024-02-16T00:12:00;4.30;;;1.73;;
9906;SDS011;4992;51.628;6.664;2024-02-16T00:14:26;3.67;;;1.65;;
9906;SDS011;4992;51.628;6.664;2024-02-16T00:16:52;3.50;;;1.48;;
9906;SDS011;4992;51.628;6.664;2024-02-16T00:19:17;4.97;;;1.50;;
9906;SDS011;4992;51.628;6.664;2024-02-16T00:21:43;2.78;;;1.42;;
9906;SDS011;4992;51.628;6.664;2024-02-16T00:24:08;4.95;;;1.40;;
9906;SDS011;4992;51.628;6.664;2024-02-16T00:26:34;5.63;;;1.63;;
9906;SDS011;4992;51.628;6.664;2024-02-16T00:29:00;3.80;;;1.77;;
9906;SDS011;4992;51.628;6.664;2024-02-16T00:31:25;4.60;;;1.40;;
9906;SDS011;4992;51.628;6.664;2024-02-16T00:33:51;5.93;;;1.90;;
9906;SDS011;4992;51.628;6.664;2024-02-16T00:36:16;4.75;;;1.58;;
9906;SDS011;4992;51.628;6.664;2024-02-16T00:38:42;5.53;;;1.95;;
9906;SDS011;4992;51.628;6.664;2024-02-16T00:41:07;2.38;;;1.40;;
9906;SDS011;4992;51.628;6.664;2024-02-16T00:43:33;3.63;;;1.63;;
9906;SDS011;4992;51.628;6.664;2024-02-16T00:45:58;3.40;;;1.40;;
9906;SDS011;4992;51.628;6.664;2024-02-16T00:48:24;2.58;;;1.52;;
9906;SDS011;4992;51.628;6.664;2024-02-16T00:50:49;5.50;;;1.35;;
9906;SDS011;4992;51.628;6.664;2024-02-16T00:53:15;2.47;;;1.33;;
9906;SDS011;4992;51.628;6.664;2024-02-16T00:55:40;3.80;;;1.48;;
9906;SDS011;4992;51.628;6.664;2024-02-16T00:58:06;4.38;;;1.25;;
9906;SDS011;4992;51.628;6.664;2024-02-16T01:00:32;3.25;;;1.55;;
9906;SDS011;4992;51.628;6.664;2024-02-16T01:02:58;2.85;;;1.60;;
9906;SDS011;4992;51.628;6.664;2024-02-16T01:05:23;3.88;;;1.70;;
9906;SDS011;4992;51.628;6.664;2024-02-16T01:07:49;5.03;;;1.90;;
9906;SDS011;4992;51.628;6.664;2024-02-16T01:10:14;2.78;;;1.63;;
9906;SDS011;4992;51.628;6.664;2024-02-16T01:12:40;3.35;;;2.03;;
9906;SDS011;4992;51.628;6.664;2024-02-16T01:15:05;3.90;;;2.00;;
9906;SDS011;4992;51.628;6.664;2024-02-16T01:17:31;3.83;;;1.90;;
9906;SDS011;4992;51.628;6.664;2024-02-16T01:19:57;5.82;;;1.77;;
9906;SDS011;4992;51.628;6.664;2024-02-16T01:22:23;5.75;;;1.73;;
9906;SDS011;4992;51.628;6.664;2024-02-16T01:24:49;5.47;;;1.60;;
9906;SDS011;4992;51.628;6.664;2024-02-16T01:27:15;3.92;;;1.65;;
9906;SDS011;4992;51.628;6.664;2024-02-16T01:29:41;5.22;;;1.92;;
9906;SDS011;4992;51.628;6.664;2024-02-16T01:32:07;4.43;;;2.05;;
9906;SDS011;4992;51.628;6.664;2024-02-16T01:34:33;3.13;;;1.95;;
9906;SDS011;4992;51.628;6.664;2024-02-16T01:36:58;6.40;;;2.53;;
9906;SDS011;4992;51.628;6.664;2024-02-16T01:39:24;5.10;;;2.10;;
9906;SDS011;4992;51.628;6.664;2024-02-16T01:41:50;4.45;;;2.08;;
9906;SDS011;4992;51.628;6.664;2024-02-16T01:44:15;2.95;;;2.17;;
9906;SDS011;4992;51.628;6.664;2024-02-16T01:46:42;4.13;;;2.30;;
9906;SDS011;4992;51.628;6.664;2024-02-16T01:49:07;4.38;;;2.38;;
9906;SDS011;4992;51.628;6.664;2024-02-16T01:51:34;5.85;;;3.03;;
9906;SDS011;4992;51.628;6.664;2024-02-16T01:54:00;6.18;;;3.08;;
9906;SDS011;4992;51.628;6.664;2024-02-16T01:56:27;7.65;;;3.50;;
9906;SDS011;4992;51.628;6.664;2024-02-16T01:58:53;5.60;;;2.70;;
9906;SDS011;4992;51.628;6.664;2024-02-16T02:01:18;6.35;;;3.20;;
9906;SDS011;4992;51.628;6.664;2024-02-16T02:03:44;7.03;;;3.00;;
9906;SDS011;4992;51.628;6.664;2024-02-16T02:06:10;4.53;;;2.53;;
9906;SDS011;4992;51.628;6.664;2024-02-16T02:08:35;4.63;;;2.72;;
9906;SDS011;4992;51.628;6.664;2024-02-16T02:11:01;4.78;;;2.97;;
9906;SDS011;4992;51.628;6.664;2024-02-16T02:13:27;2.60;;;2.00;;
9906;SDS011;4992;51.628;6.664;2024-02-16T02:15:53;5.72;;;2.88;;
9906;SDS011;4992;51.628;6.664;2024-02-16T02:18:19;4.72;;;1.83;;
9906;SDS011;4992;51.628;6.664;2024-02-16T02:20:45;4.80;;;1.75;;
9906;SDS011;4992;51.628;6.664;2024-02-16T02:23:10;4.85;;;1.63;;
9906;SDS011;4992;51.628;6.664;2024-02-16T02:25:36;3.83;;;1.95;;
9906;SDS011;4992;51.628;6.664;2024-02-16T02:28:02;3.25;;;1.80;;
9906;SDS011;4992;51.628;6.664;2024-02-16T02:30:28;2.15;;;1.60;;
9906;SDS011;4992;51.628;6.664;2024-02-16T02:32:53;4.18;;;1.73;;
9906;SDS011;4992;51.628;6.664;2024-02-16T02:35:19;3.22;;;1.70;;
9906;SDS011;4992;51.628;6.664;2024-02-16T02:37:45;3.97;;;1.70;;
9906;SDS011;4992;51.628;6.664;2024-02-16T02:40:10;3.20;;;1.40;;
9906;SDS011;4992;51.628;6.664;2024-02-16T02:42:37;4.65;;;1.65;;
9906;SDS011;4992;51.628;6.664;2024-02-16T02:45:03;3.25;;;1.67;;
9906;SDS011;4992;51.628;6.664;2024-02-16T02:47:29;5.07;;;2.10;;
9906;SDS011;4992;51.628;6.664;2024-02-16T02:49:54;1.95;;;1.52;;
9906;SDS011;4992;51.628;6.664;2024-02-16T02:52:21;4.43;;;1.80;;
9906;SDS011;4992;51.628;6.664;2024-02-16T02:54:46;4.38;;;1.65;;
9906;SDS011;4992;51.628;6.664;2024-02-16T02:57:12;2.92;;;1.70;;
9906;SDS011;4992;51.628;6.664;2024-02-16T02:59:38;5.00;;;1.95;;
9906;SDS011;4992;51.628;6.664;2024-02-16T03:02:04;7.07;;;2.65;;
9906;SDS011;4992;51.628;6.664;2024-02-16T03:04:29;2.00;;;1.45;;
9906;SDS011;4992;51.628;6.664;2024-02-16T03:06:55;3.25;;;1.48;;
9906;SDS011;4992;51.628;6.664;2024-02-16T03:09:20;3.67;;;1.67;;
9906;SDS011;4992;51.628;6.664;2024-02-16T03:11:47;4.00;;;1.73;;
9906;SDS011;4992;51.628;6.664;2024-02-16T03:14:13;3.70;;;2.20;;
9906;SDS011;4992;51.628;6.664;2024-02-16T03:16:38;4.53;;;2.03;;
9906;SDS011;4992;51.628;6.664;2024-02-16T03:19:05;6.40;;;2.85;;
9906;SDS011;4992;51.628;6.664;2024-02-16T03:21:33;5.65;;;2.50;;
9906;SDS011;4992;51.628;6.664;2024-02-16T03:24:00;5.22;;;2.70;;
9906;SDS011;4992;51.628;6.664;2024-02-16T03:26:29;8.32;;;3.38;;
9906;SDS011;4992;51.628;6.664;2024-02-16T03:28:55;4.30;;;3.10;;
9906;SDS011;4992;51.628;6.664;2024-02-16T03:31:21;5.57;;;2.92;;
9906;SDS011;4992;51.628;6.664;2024-02-16T03:33:49;6.80;;;3.25;;
9906;SDS011;4992;51.628;6.664;2024-02-16T03:36:16;4.97;;;2.90;;
9906;SDS011;4992;51.628;6.664;2024-02-16T03:38:44;5.18;;;3.13;;
9906;SDS011;4992;51.628;6.664;2024-02-16T03:41:13;4.32;;;2.35;;
9906;SDS011;4992;51.628;6.664;2024-02-16T03:43:41;5.05;;;2.55;;
9906;SDS011;4992;51.628;6.664;2024-02-16T03:46:07;5.85;;;2.60;;
9906;SDS011;4992;51.628;6.664;2024-02-16T03:48:33;6.25;;;2.42;;
9906;SDS011;4992;51.628;6.664;2024-02-16T03:50:59;6.78;;;2.65;;
9906;SDS011;4992;51.628;6.664;2024-02-16T03:53:25;6.13;;;2.70;;
9906;SDS011;4992;51.628;6.664;2024-02-16T03:55:51;3.28;;;2.05;;
9906;SDS011;4992;51.628;6.664;2024-02-16T03:58:16;4.53;;;2.40;;
9906;SDS011;4992;51.628;6.664;2024-02-16T04:00:42;3.53;;;1.77;;
9906;SDS011;4992;51.628;6.664;2024-02-16T04:03:07;3.72;;;2.13;;
9906;SDS011;4992;51.628;6.664;2024-02-16T04:05:34;4.43;;;2.33;;
9906;SDS011;4992;51.628;6.664;2024-02-16T04:08:00;3.70;;;2.30;;
9906;SDS011;4992;51.628;6.664;2024-02-16T04:10:28;6.70;;;2.35;;
9906;SDS011;4992;51.628;6.664;2024-02-16T04:12:54;4.65;;;2.38;;
9906;SDS011;4992;51.628;6.664;2024-02-16T04:15:19;3.80;;;2.17;;
9906;SDS011;4992;51.628;6.664;2024-02-16T04:17:45;3.72;;;2.10;;
9906;SDS011;4992;51.628;6.664;2024-02-16T04:20:11;4.13;;;2.15;;
9906;SDS011;4992;51.628;6.664;2024-02-16T04:22:36;4.20;;;2.58;;
9906;SDS011;4992;51.628;6.664;2024-02-16T04:25:03;5.40;;;2.25;;
9906;SDS011;4992;51.628;6.664;2024-02-16T04:27:29;3.53;;;1.95;;
9906;SDS011;4992;51.628;6.664;2024-02-16T04:29:55;3.88;;;2.50;;
9906;SDS011;4992;51.628;6.664;2024-02-16T04:32:20;4.32;;;2.10;;
9906;SDS011;4992;51.628;6.664;2024-02-16T04:34:46;6.22;;;2.20;;
9906;SDS011;4992;51.628;6.664;2024-02-16T04:37:12;3.08;;;2.38;;
9906;SDS011;4992;51.628;6.664;2024-02-16T04:39:38;4.25;;;2.13;;
9906;SDS011;4992;51.628;6.664;2024-02-16T04:42:05;3.30;;;2.20;;
9906;SDS011;4992;51.628;6.664;2024-02-16T04:44:30;8.80;;;2.22;;
9906;SDS011;4992;51.628;6.664;2024-02-16T04:46:56;3.47;;;2.10;;
9906;SDS011;4992;51.628;6.664;2024-02-16T04:49:21;5.50;;;2.10;;
9906;SDS011;4992;51.628;6.664;2024-02-16T04:51:47;4.28;;;2.08;;
9906;SDS011;4992;51.628;6.664;2024-02-16T04:54:13;3.35;;;2.22;;
9906;SDS011;4992;51.628;6.664;2024-02-16T04:56:38;6.88;;;2.72;;
9906;SDS011;4992;51.628;6.664;2024-02-16T04:59:04;5.15;;;2.45;;
9906;SDS011;4992;51.628;6.664;2024-02-16T05:01:30;7.35;;;2.60;;
9906;SDS011;4992;51.628;6.664;2024-02-16T05:03:57;4.00;;;2.28;;
9906;SDS011;4992;51.628;6.664;2024-02-16T05:06:24;4.78;;;2.30;;
9906;SDS011;4992;51.628;6.664;2024-02-16T05:08:50;7.38;;;3.35;;
9906;SDS011;4992;51.628;6.664;2024-02-16T05:11:15;4.53;;;2.13;;
9906;SDS011;4992;51.628;6.664;2024-02-16T05:13:41;5.03;;;2.20;;
9906;SDS011;4992;51.628;6.664;2024-02-16T05:16:10;4.93;;;2.08;;
9906;SDS011;4992;51.628;6.664;2024-02-16T05:18:36;3.08;;;2.05;;
9906;SDS011;4992;51.628;6.664;2024-02-16T05:21:03;6.20;;;2.75;;
9906;SDS011;4992;51.628;6.664;2024-02-16T05:23:28;7.82;;;2.20;;
9906;SDS011;4992;51.628;6.664;2024-02-16T05:25:54;4.45;;;2.20;;
9906;SDS011;4992;51.628;6.664;2024-02-16T05:28:20;6.68;;;2.58;;
9906;SDS011;4992;51.628;6.664;2024-02-16T05:30:45;5.35;;;2.30;;
9906;SDS011;4992;51.628;6.664;2024-02-16T05:33:11;4.57;;;2.35;;
9906;SDS011;4992;51.628;6.664;2024-02-16T05:35:36;7.75;;;2.63;;
9906;SDS011;4992;51.628;6.664;2024-02-16T05:38:05;5.00;;;2.35;;
9906;SDS011;4992;51.628;6.664;2024-02-16T05:40:56;4.03;;;2.08;;
9906;SDS011;4992;51.628;6.664;2024-02-16T05:43:22;3.38;;;2.28;;
9906;SDS011;4992;51.628;6.664;2024-02-16T05:45:48;3.15;;;2.45;;
9906;SDS011;4992;51.628;6.664;2024-02-16T05:48:14;5.68;;;2.65;;
9906;SDS011;4992;51.628;6.664;2024-02-16T05:50:40;5.00;;;2.67;;
9906;SDS011;4992;51.628;6.664;2024-02-16T05:53:06;5.75;;;2.75;;
9906;SDS011;4992;51.628;6.664;2024-02-16T05:55:32;5.72;;;2.47;;
9906;SDS011;4992;51.628;6.664;2024-02-16T05:57:57;8.10;;;2.60;;
9906;SDS011;4992;51.628;6.664;2024-02-16T06:00:23;5.45;;;2.60;;
9906;SDS011;4992;51.628;6.664;2024-02-16T06:02:48;7.43;;;2.70;;
9906;SDS011;4992;51.628;6.664;2024-02-16T06:05:14;4.80;;;2.67;;
9906;SDS011;4992;51.628;6.664;2024-02-16T06:07:40;4.03;;;2.00;;
9906;SDS011;4992;51.628;6.664;2024-02-16T06:10:05;5.72;;;2.80;;
9906;SDS011;4992;51.628;6.664;2024-02-16T06:12:38;4.75;;;2.60;;
9906;SDS011;4992;51.628;6.664;2024-02-16T06:15:05;5.10;;;2.63;;
9906;SDS011;4992;51.628;6.664;2024-02-16T06:17:30;4.93;;;2.40;;
9906;SDS011;4992;51.628;6.664;2024-02-16T06:19:56;6.30;;;2.63;;
9906;SDS011;4992;51.628;6.664;2024-02-16T06:22:22;5.60;;;2.17;;
9906;SDS011;4992;51.628;6.664;2024-02-16T06:24:48;6.45;;;2.67;;
9906;SDS011;4992;51.628;6.664;2024-02-16T06:27:14;2.88;;;1.70;;
9906;SDS011;4992;51.628;6.664;2024-02-16T06:29:41;5.70;;;2.65;;
9906;SDS011;4992;51.628;6.664;2024-02-16T06:32:06;5.40;;;2.30;;
9906;SDS011;4992;51.628;6.664;2024-02-16T06:34:32;4.28;;;2.08;;
9906;SDS011;4992;51.628;6.664;2024-02-16T06:36:59;4.82;;;2.50;;
9906;SDS011;4992;51.628;6.664;2024-02-16T06:39:24;3.70;;;2.17;;
9906;SDS011;4992;51.628;6.664;2024-02-16T06:41:50;4.65;;;2.33;;
9906;SDS011;4992;51.628;6.664;2024-02-16T06:44:15;7.03;;;2.60;;
9906;SDS011;4992;51.628;6.664;2024-02-16T06:46:42;5.47;;;2.42;;
9906;SDS011;4992;51.628;6.664;2024-02-16T06:49:08;5.43;;;2.85;;
9906;SDS011;4992;51.628;6.664;2024-02-16T06:51:35;3.97;;;2.30;;
9906;SDS011;4992;51.628;6.664;2024-02-16T06:54:02;6.70;;;2.83;;
9906;SDS011;4992;51.628;6.664;2024-02-16T06:56:28;5.90;;;3.05;;
9906;SDS011;4992;51.628;6.664;2024-02-16T06:58:54;6.72;;;2.83;;
9906;SDS011;4992;51.628;6.664;2024-02-16T07:01:20;6.97;;;2.90;;
9906;SDS011;4992;51.628;6.664;2024-02-16T07:03:45;5.82;;;3.28;;
9906;SDS011;4992;51.628;6.664;2024-02-16T07:06:11;8.90;;;3.15;;
9906;SDS011;4992;51.628;6.664;2024-02-16T07:08:39;4.35;;;2.88;;
9906;SDS011;4992;51.628;6.664;2024-02-16T07:11:05;8.18;;;3.50;;
9906;SDS011;4992;51.628;6.664;2024-02-16T07:13:34;5.70;;;3.17;;
9906;SDS011;4992;51.628;6.664;2024-02-16T07:16:00;6.22;;;3.28;;
9906;SDS011;4992;51.628;6.664;2024-02-16T07:18:25;5.43;;;2.95;;
9906;SDS011;4992;51.628;6.664;2024-02-16T07:20:51;5.80;;;3.10;;
9906;SDS011;4992;51.628;6.664;2024-02-16T07:23:16;7.35;;;3.22;;
9906;SDS011;4992;51.628;6.664;2024-02-16T07:25:42;9.60;;;4.90;;
9906;SDS011;4992;51.628;6.664;2024-02-16T07:28:08;6.15;;;3.25;;
9906;SDS011;4992;51.628;6.664;2024-02-16T07:30:34;4.53;;;3.17;;
9906;SDS011;4992;51.628;6.664;2024-02-16T07:33:05;5.18;;;3.00;;
9906;SDS011;4992;51.628;6.664;2024-02-16T07:35:32;6.18;;;3.05;;
9906;SDS011;4992;51.628;6.664;2024-02-16T07:38:03;8.90;;;2.70;;
9906;SDS011;4992;51.628;6.664;2024-02-16T07:40:29;6.10;;;2.72;;
9906;SDS011;4992;51.628;6.664;2024-02-16T07:42:55;6.25;;;2.20;;
9906;SDS011;4992;51.628;6.664;2024-02-16T07:45:21;5.68;;;2.10;;
9906;SDS011;4992;51.628;6.664;2024-02-16T07:47:47;4.00;;;2.22;;
9906;SDS011;4992;51.628;6.664;2024-02-16T07:50:12;5.70;;;2.30;;
9906;SDS011;4992;51.628;6.664;2024-02-16T07:52:39;4.75;;;2.30;;
9906;SDS011;4992;51.628;6.664;2024-02-16T07:55:05;3.90;;;2.33;;
9906;SDS011;4992;51.628;6.664;2024-02-16T07:57:31;7.05;;;2.42;;
9906;SDS011;4992;51.628;6.664;2024-02-16T07:59:57;3.83;;;2.20;;
9906;SDS011;4992;51.628;6.664;2024-02-16T08:02:22;3.75;;;2.08;;
9906;SDS011;4992;51.628;6.664;2024-02-16T08:04:48;3.47;;;2.25;;
9906;SDS011;4992;51.628;6.664;2024-02-16T08:07:14;7.47;;;2.50;;
9906;SDS011;4992;51.628;6.664;2024-02-16T08:09:43;5.55;;;2.25;;
9906;SDS011;4992;51.628;6.664;2024-02-16T08:12:14;4.22;;;2.67;;
9906;SDS011;4992;51.628;6.664;2024-02-16T08:14:41;6.43;;;2.65;;
9906;SDS011;4992;51.628;6.664;2024-02-16T08:17:07;4.65;;;2.30;;
9906;SDS011;4992;51.628;6.664;2024-02-16T08:19:34;6.10;;;2.70;;
9906;SDS011;4992;51.628;6.664;2024-02-16T08:22:01;3.90;;;2.63;;
9906;SDS011;4992;51.628;6.664;2024-02-16T08:24:34;6.85;;;2.33;;
9906;SDS011;4992;51.628;6.664;2024-02-16T08:27:00;5.95;;;2.50;;
9906;SDS011;4992;51.628;6.664;2024-02-16T08:29:26;5.72;;;2.13;;
9906;SDS011;4992;51.628;6.664;2024-02-16T08:31:52;5.22;;;2.33;;
9906;SDS011;4992;51.628;6.664;2024-02-16T08:34:19;4.72;;;2.22;;
9906;SDS011;4992;51.628;6.664;2024-02-16T08:36:45;3.42;;;2.35;;
9906;SDS011;4992;51.628;6.664;2024-02-16T08:39:14;3.75;;;2.13;;
9906;SDS011;4992;51.628;6.664;2024-02-16T08:41:41;6.90;;;2.50;;
9906;SDS011;4992;51.628;6.664;2024-02-16T08:44:07;2.95;;;2.15;;
9906;SDS011;4992;51.628;6.664;2024-02-16T08:46:36;4.25;;;2.10;;
9906;SDS011;4992;51.628;6.664;2024-02-16T08:49:02;6.00;;;1.90;;
9906;SDS011;4992;51.628;6.664;2024-02-16T08:51:28;3.53;;;2.10;;
9906;SDS011;4992;51.628;6.664;2024-02-16T08:53:54;2.63;;;1.92;;
9906;SDS011;4992;51.628;6.664;2024-02-16T08:56:19;6.07;;;2.22;;
9906;SDS011;4992;51.628;6.664;2024-02-16T08:58:45;3.90;;;2.33;;
9906;SDS011;4992;51.628;6.664;2024-02-16T09:01:10;4.88;;;2.40;;
9906;SDS011;4992;51.628;6.664;2024-02-16T09:03:36;2.90;;;1.73;;
9906;SDS011;4992;51.628;6.664;2024-02-16T09:06:04;4.82;;;2.22;;
9906;SDS011;4992;51.628;6.664;2024-02-16T09:08:30;4.15;;;1.80;;
9906;SDS011;4992;51.628;6.664;2024-02-16T09:11:00;6.20;;;2.13;;
9906;SDS011;4992;51.628;6.664;2024-02-16T09:13:29;4.20;;;2.17;;
9906;SDS011;4992;51.628;6.664;2024-02-16T09:15:59;3.72;;;2.20;;
9906;SDS011;4992;51.628;6.664;2024-02-16T09:18:25;5.18;;;2.30;;
9906;SDS011;4992;51.628;6.664;2024-02-16T09:20:50;4.13;;;1.85;;
9906;SDS011;4992;51.628;6.664;2024-02-16T09:23:16;4.95;;;1.90;;
9906;SDS011;4992;51.628;6.664;2024-02-16T09:25:42;6.32;;;2.08;;
9906;SDS011;4992;51.628;6.664;2024-02-16T09:28:08;3.35;;;2.40;;
9906;SDS011;4992;51.628;6.664;2024-02-16T09:30:34;4.30;;;1.85;;
9906;SDS011;4992;51.628;6.664;2024-02-16T09:32:59;9.32;;;2.10;;
9906;SDS011;4992;51.628;6.664;2024-02-16T09:35:25;5.50;;;2.58;;
9906;SDS011;4992;51.628;6.664;2024-02-16T09:37:50;7.00;;;2.30;;
9906;SDS011;4992;51.628;6.664;2024-02-16T09:40:16;3.38;;;2.17;;
9906;SDS011;4992;51.628;6.664;2024-02-16T09:42:47;3.35;;;2.40;;
9906;SDS011;4992;51.628;6.664;2024-02-16T09:45:14;5.28;;;2.38;;
9906;SDS011;4992;51.628;6.664;2024-02-16T09:47:41;5.35;;;2.03;;
9906;SDS011;4992;51.628;6.664;2024-02-16T09:50:11;3.55;;;2.00;;
9906;SDS011;4992;51.628;6.664;2024-02-16T09:52:37;3.72;;;2.50;;
9906;SDS011;4992;51.628;6.664;2024-02-16T09:55:03;6.07;;;2.40;;
9906;SDS011;4992;51.628;6.664;2024-02-16T09:57:32;4.40;;;2.30;;
9906;SDS011;4992;51.628;6.664;2024-02-16T09:59:57;2.40;;;1.80;;
9906;SDS011;4992;51.628;6.664;2024-02-16T10:02:24;5.15;;;2.30;;
9906;SDS011;4992;51.628;6.664;2024-02-16T10:04:49;4.20;;;2.50;;
9906;SDS011;4992;51.628;6.664;2024-02-16T10:07:15;6.65;;;2.30;;
9906;SDS011;4992;51.628;6.664;2024-02-16T10:09:40;8.15;;;3.05;;
9906;SDS011;4992;51.628;6.664;2024-02-16T10:12:06;4.00;;;2.40;;
9906;SDS011;4992;51.628;6.664;2024-02-16T10:14:32;4.10;;;2.30;;
9906;SDS011;4992;51.628;6.664;2024-02-16T10:17:02;5.78;;;2.00;;
9906;SDS011;4992;51.628;6.664;2024-02-16T10:19:29;3.00;;;1.95;;
9906;SDS011;4992;51.628;6.664;2024-02-16T10:22:07;3.63;;;2.05;;
9906;SDS011;4992;51.628;6.664;2024-02-16T10:24:37;3.78;;;2.30;;
9906;SDS011;4992;51.628;6.664;2024-02-16T10:27:13;3.58;;;2.72;;
9906;SDS011;4992;51.628;6.664;2024-02-16T10:29:41;5.10;;;2.65;;
9906;SDS011;4992;51.628;6.664;2024-02-16T10:32:10;6.05;;;2.17;;
9906;SDS011;4992;51.628;6.664;2024-02-16T10:34:36;6.88;;;2.63;;
9906;SDS011;4992;51.628;6.664;2024-02-16T10:37:04;5.65;;;2.47;;
9906;SDS011;4992;51.628;6.664;2024-02-16T10:39:30;6.60;;;3.03;;
9906;SDS011;4992;51.628;6.664;2024-02-16T10:41:57;9.52;;;2.63;;
9906;SDS011;4992;51.628;6.664;2024-02-16T10:44:25;6.03;;;2.55;;
9906;SDS011;4992;51.628;6.664;2024-02-16T10:46:53;9.02;;;3.00;;
9906;SDS011;4992;51.628;6.664;2024-02-16T10:49:21;5.57;;;2.55;;
9906;SDS011;4992;51.628;6.664;2024-02-16T10:51:49;5.32;;;2.80;;
9906;SDS011;4992;51.628;6.664;2024-02-16T10:54:21;5.22;;;2.70;;
9906;SDS011;4992;51.628;6.664;2024-02-16T10:56:52;7.90;;;2.83;;
9906;SDS011;4992;51.628;6.664;2024-02-16T10:59:18;3.13;;;2.40;;
9906;SDS011;4992;51.628;6.664;2024-02-16T11:01:44;7.45;;;2.85;;
9906;SDS011;4992;51.628;6.664;2024-02-16T11:04:16;6.65;;;3.22;;
9906;SDS011;4992;51.628;6.664;2024-02-16T11:06:53;5.50;;;2.80;;
9906;SDS011;4992;51.628;6.664;2024-02-16T11:09:28;4.80;;;2.45;;
9906;SDS011;4992;51.628;6.664;2024-02-16T11:12:01;3.95;;;2.72;;
9906;SDS011;4992;51.628;6.664;2024-02-16T11:14:34;5.45;;;2.63;;
9906;SDS011;4992;51.628;6.664;2024-02-16T11:17:01;5.35;;;2.88;;
9906;SDS011;4992;51.628;6.664;2024-02-16T11:19:31;8.48;;;3.05;;
9906;SDS011;4992;51.628;6.664;2024-02-16T11:21:58;6.38;;;3.05;;
9906;SDS011;4992;51.628;6.664;2024-02-16T11:24:30;3.78;;;2.70;;
9906;SDS011;4992;51.628;6.664;2024-02-16T11:26:57;5.75;;;3.42;;
9906;SDS011;4992;51.628;6.664;2024-02-16T11:29:23;5.07;;;3.00;;
9906;SDS011;4992;51.628;6.664;2024-02-16T11:31:50;5.82;;;3.33;;
9906;SDS011;4992;51.628;6.664;2024-02-16T11:34:24;7.32;;;3.20;;
9906;SDS011;4992;51.628;6.664;2024-02-16T11:36:54;6.30;;;3.60;;
9906;SDS011;4992;51.628;6.664;2024-02-16T11:39:21;4.18;;;3.42;;
9906;SDS011;4992;51.628;6.664;2024-02-16T11:41:47;5.53;;;2.90;;
9906;SDS011;4992;51.628;6.664;2024-02-16T11:44:13;6.82;;;3.42;;
9906;SDS011;4992;51.628;6.664;2024-02-16T11:46:42;8.85;;;3.95;;
9906;SDS011;4992;51.628;6.664;2024-02-16T11:49:08;6.47;;;4.03;;
9906;SDS011;4992;51.628;6.664;2024-02-16T11:51:35;9.18;;;4.05;;
9906;SDS011;4992;51.628;6.664;2024-02-16T11:54:00;9.57;;;3.90;;
9906;SDS011;4992;51.628;6.664;2024-02-16T11:56:26;8.43;;;4.18;;
9906;SDS011;4992;51.628;6.664;2024-02-16T11:58:52;5.55;;;4.43;;
9906;SDS011;4992;51.628;6.664;2024-02-16T12:01:18;8.60;;;4.45;;
9906;SDS011;4992;51.628;6.664;2024-02-16T12:03:44;9.02;;;4.57;;
9906;SDS011;4992;51.628;6.664;2024-02-16T12:06:18;9.65;;;4.93;;
9906;SDS011;4992;51.628;6.664;2024-02-16T12:08:47;10.63;;;5.80;;
9906;SDS011;4992;51.628;6.664;2024-02-16T12:11:15;8.07;;;4.75;;
9906;SDS011;4992;51.628;6.664;2024-02-16T12:13:41;8.88;;;5.15;;
9906;SDS011;4992;51.628;6.664;2024-02-16T12:16:06;7.40;;;5.40;;
9906;SDS011;4992;51.628;6.664;2024-02-16T12:18:32;8.73;;;5.18;;
9906;SDS011;4992;51.628;6.664;2024-02-16T12:23:35;10.20;;;5.40;;
9906;SDS011;4992;51.628;6.664;2024-02-16T12:26:01;7.20;;;5.35;;
9906;SDS011;4992;51.628;6.664;2024-02-16T12:28:31;10.15;;;5.22;;
9906;SDS011;4992;51.628;6.664;2024-02-16T12:31:01;8.00;;;5.03;;
9906;SDS011;4992;51.628;6.664;2024-02-16T12:33:26;9.13;;;4.82;;
9906;SDS011;4992;51.628;6.664;2024-02-16T12:35:52;12.23;;;5.50;;
9906;SDS011;4992;51.628;6.664;2024-02-16T12:38:19;8.70;;;4.82;;
9906;SDS011;4992;51.628;6.664;2024-02-16T12:40:53;5.85;;;4.95;;
9906;SDS011;4992;51.628;6.664;2024-02-16T12:43:19;8.07;;;4.88;;
9906;SDS011;4992;51.628;6.664;2024-02-16T12:45:44;10.50;;;5.32;;
9906;SDS011;4992;51.628;6.664;2024-02-16T12:48:10;6.32;;;5.65;;
9906;SDS011;4992;51.628;6.664;2024-02-16T12:50:38;12.05;;;5.75;;
9906;SDS011;4992;51.628;6.664;2024-02-16T12:53:04;10.30;;;4.93;;
9906;SDS011;4992;51.628;6.664;2024-02-16T12:55:29;9.48;;;5.15;;
9906;SDS011;4992;51.628;6.664;2024-02-16T12:57:56;10.35;;;5.70;;
9906;SDS011;4992;51.628;6.664;2024-02-16T13:00:21;11.90;;;5.38;;
9906;SDS011;4992;51.628;6.664;2024-02-16T13:02:47;9.10;;;5.13;;
9906;SDS011;4992;51.628;6.664;2024-02-16T13:05:12;10.32;;;5.30;;
9906;SDS011;4992;51.628;6.664;2024-02-16T13:07:38;7.13;;;5.40;;
9906;SDS011;4992;51.628;6.664;2024-02-16T13:10:06;8.25;;;5.97;;
9906;SDS011;4992;51.628;6.664;2024-02-16T13:12:32;10.00;;;6.50;;
9906;SDS011;4992;51.628;6.664;2024-02-16T13:14:58;12.23;;;7.47;;
9906;SDS011;4992;51.628;6.664;2024-02-16T13:17:23;12.98;;;7.68;;
9906;SDS011;4992;51.628;6.664;2024-02-16T13:19:51;15.52;;;8.05;;
9906;SDS011;4992;51.628;6.664;2024-02-16T13:22:17;9.90;;;7.70;;
9906;SDS011;4992;51.628;6.664;2024-02-16T13:24:43;10.13;;;7.55;;
9906;SDS011;4992;51.628;6.664;2024-02-16T13:27:09;12.55;;;7.55;;
9906;SDS011;4992;51.628;6.664;2024-02-16T13:29:34;11.15;;;8.27;;
9906;SDS011;4992;51.628;6.664;2024-02-16T13:32:00;10.73;;;7.97;;
9906;SDS011;4992;51.628;6.664;2024-02-16T13:34:26;9.90;;;7.97;;
9906;SDS011;4992;51.628;6.664;2024-02-16T13:36:52;15.05;;;8.30;;
9906;SDS011;4992;51.628;6.664;2024-02-16T13:39:18;13.55;;;9.10;;
9906;SDS011;4992;51.628;6.664;2024-02-16T13:41:44;10.18;;;8.82;;
9906;SDS011;4992;51.628;6.664;2024-02-16T13:44:12;12.65;;;8.68;;
9906;SDS011;4992;51.628;6.664;2024-02-16T13:46:37;10.90;;;9.00;;
9906;SDS011;4992;51.628;6.664;2024-02-16T13:49:03;11.98;;;10.48;;
9906;SDS011;4992;51.628;6.664;2024-02-16T13:51:28;12.45;;;10.13;;
9906;SDS011;4992;51.628;6.664;2024-02-16T13:53:54;12.13;;;9.57;;
9906;SDS011;4992;51.628;6.664;2024-02-16T13:56:19;12.05;;;9.50;;
9906;SDS011;4992;51.628;6.664;2024-02-16T13:58:45;11.70;;;9.45;;
9906;SDS011;4992;51.628;6.664;2024-02-16T14:01:12;13.48;;;9.15;;
9906;SDS011;4992;51.628;6.664;2024-02-16T14:03:38;12.98;;;11.13;;
9906;SDS011;4992;51.628;6.664;2024-02-16T14:06:04;15.27;;;11.10;;
9906;SDS011;4992;51.628;6.664;2024-02-16T14:08:31;13.93;;;11.63;;
9906;SDS011;4992;51.628;6.664;2024-02-16T14:10:57;14.15;;;11.18;;
9906;SDS011;4992;51.628;6.664;2024-02-16T14:13:22;13.60;;;11.35;;
9906;SDS011;4992;51.628;6.664;2024-02-16T14:15:49;12.95;;;10.23;;
9906;SDS011;4992;51.628;6.664;2024-02-16T14:18:15;14.02;;;10.50;;
9906;SDS011;4992;51.628;6.664;2024-02-16T14:20:41;10.45;;;9.45;;
9906;SDS011;4992;51.628;6.664;2024-02-16T14:23:06;11.20;;;8.57;;
9906;SDS011;4992;51.628;6.664;2024-02-16T14:25:35;10.65;;;9.45;;
9906;SDS011;4992;51.628;6.664;2024-02-16T14:28:02;11.02;;;9.00;;
9906;SDS011;4992;51.628;6.664;2024-02-16T14:30:28;10.93;;;9.00;;
9906;SDS011;4992;51.628;6.664;2024-02-16T14:32:54;10.45;;;8.52;;
9906;SDS011;4992;51.628;6.664;2024-02-16T14:35:19;19.17;;;16.92;;
9906;SDS011;4992;51.628;6.664;2024-02-16T14:37:47;11.40;;;10.13;;
9906;SDS011;4992;51.628;6.664;2024-02-16T14:40:12;8.75;;;7.80;;
9906;SDS011;4992;51.628;6.664;2024-02-16T14:42:38;8.57;;;7.68;;
9906;SDS011;4992;51.628;6.664;2024-02-16T14:45:04;8.93;;;8.02;;
9906;SDS011;4992;51.628;6.664;2024-02-16T14:47:34;7.55;;;6.85;;
9906;SDS011;4992;51.628;6.664;2024-02-16T14:50:00;7.93;;;7.20;;
9906;SDS011;4992;51.628;6.664;2024-02-16T14:52:28;8.30;;;7.50;;
9906;SDS011;4992;51.628;6.664;2024-02-16T14:54:54;8.57;;;7.78;;
9906;SDS011;4992;51.628;6.664;2024-02-16T14:57:20;7.60;;;6.85;;
9906;SDS011;4992;51.628;6.664;2024-02-16T14:59:49;8.15;;;7.00;;
9906;SDS011;4992;51.628;6.664;2024-02-16T15:02:17;7.93;;;6.55;;
9906;SDS011;4992;51.628;6.664;2024-02-16T15:04:44;7.03;;;6.05;;
9906;SDS011;4992;51.628;6.664;2024-02-16T15:07:10;7.88;;;6.97;;
9906;SDS011;4992;51.628;6.664;2024-02-16T15:09:35;7.70;;;7.05;;
9906;SDS011;4992;51.628;6.664;2024-02-16T15:12:01;7.70;;;6.97;;